sensor_id;sensor_type;location;lat;lon;timestamp;P1;durP1;ratioP1;P2;durP2;ratioP2
72087;SDS011;59961;50.232;8.616;2022-08-19T00:00:23;22.17;;;12.20;;
72087;SDS011;59961;50.232;8.616;2022-08-19T00:02:48;21.93;;;12.57;;
72087;SDS011;59961;50.232;8.616;2022-08-19T00:05:14;20.13;;;11.82;;
72087;SDS011;59961;50.232;8.616;2022-08-19T00:07:40;21.23;;;12.53;;
72087;SDS011;59961;50.232;8.616;2022-08-19T00:10:06;19.38;;;12.43;;
72087;SDS011;59961;50.232;8.616;2022-08-19T00:12:32;19.88;;;12.02;;
72087;SDS011;59961;50.232;8.616;2022-08-19T00:14:57;21.07;;;11.63;;
72087;SDS011;59961;50.232;8.616;2022-08-19T00:17:22;20.33;;;12.50;;
72087;SDS011;59961;50.232;8.616;2022-08-19T00:19:47;20.17;;;11.77;;
72087;SDS011;59961;50.232;8.616;2022-08-19T00:22:12;21.13;;;12.07;;
72087;SDS011;59961;50.232;8.616;2022-08-19T00:24:38;20.63;;;11.90;;
72087;SDS011;59961;50.232;8.616;2022-08-19T00:27:04;21.97;;;11.90;;
72087;SDS011;59961;50.232;8.616;2022-08-19T00:29:29;22.50;;;12.32;;
72087;SDS011;59961;50.232;8.616;2022-08-19T00:31:54;19.55;;;11.23;;
72087;SDS011;59961;50.232;8.616;2022-08-19T00:34:21;19.58;;;11.75;;
72087;SDS011;59961;50.232;8.616;2022-08-19T00:36:47;20.50;;;12.13;;
72087;SDS011;59961;50.232;8.616;2022-08-19T00:39:12;18.60;;;10.63;;
72087;SDS011;59961;50.232;8.616;2022-08-19T00:41:39;19.90;;;11.18;;
72087;SDS011;59961;50.232;8.616;2022-08-19T00:46:33;18.67;;;11.23;;
72087;SDS011;59961;50.232;8.616;2022-08-19T00:49:01;16.97;;;11.20;;
72087;SDS011;59961;50.232;8.616;2022-08-19T00:51:28;19.50;;;11.10;;
72087;SDS011;59961;50.232;8.616;2022-08-19T00:53:54;18.60;;;10.63;;
72087;SDS011;59961;50.232;8.616;2022-08-19T00:56:20;17.33;;;11.38;;
72087;SDS011;59961;50.232;8.616;2022-08-19T00:58:45;18.07;;;11.10;;
72087;SDS011;59961;50.232;8.616;2022-08-19T01:01:11;16.30;;;9.87;;
72087;SDS011;59961;50.232;8.616;2022-08-19T01:03:36;20.52;;;10.70;;
72087;SDS011;59961;50.232;8.616;2022-08-19T01:06:01;18.98;;;11.15;;
72087;SDS011;59961;50.232;8.616;2022-08-19T01:08:27;15.00;;;10.05;;
72087;SDS011;59961;50.232;8.616;2022-08-19T01:10:53;17.87;;;10.60;;
72087;SDS011;59961;50.232;8.616;2022-08-19T01:13:20;17.55;;;9.93;;
72087;SDS011;59961;50.232;8.616;2022-08-19T01:15:46;17.27;;;10.20;;
72087;SDS011;59961;50.232;8.616;2022-08-19T01:18:13;15.65;;;9.98;;
72087;SDS011;59961;50.232;8.616;2022-08-19T01:20:40;20.38;;;11.23;;
72087;SDS011;59961;50.232;8.616;2022-08-19T01:23:06;19.57;;;10.93;;
72087;SDS011;59961;50.232;8.616;2022-08-19T01:25:32;17.37;;;10.07;;
72087;SDS011;59961;50.232;8.616;2022-08-19T01:27:59;16.07;;;10.10;;
72087;SDS011;59961;50.232;8.616;2022-08-19T01:30:27;18.05;;;10.75;;
72087;SDS011;59961;50.232;8.616;2022-08-19T01:32:53;18.30;;;11.13;;
72087;SDS011;59961;50.232;8.616;2022-08-19T01:35:19;20.08;;;10.98;;
72087;SDS011;59961;50.232;8.616;2022-08-19T01:37:49;16.85;;;10.65;;
72087;SDS011;59961;50.232;8.616;2022-08-19T01:40:15;17.05;;;10.70;;
72087;SDS011;59961;50.232;8.616;2022-08-19T01:42:40;17.60;;;11.30;;
72087;SDS011;59961;50.232;8.616;2022-08-19T01:45:06;16.97;;;10.00;;
72087;SDS011;59961;50.232;8.616;2022-08-19T01:47:33;17.20;;;10.35;;
72087;SDS011;59961;50.232;8.616;2022-08-19T01:49:58;18.20;;;10.93;;
72087;SDS011;59961;50.232;8.616;2022-08-19T01:52:23;19.03;;;10.73;;
72087;SDS011;59961;50.232;8.616;2022-08-19T01:54:48;18.33;;;11.30;;
72087;SDS011;59961;50.232;8.616;2022-08-19T01:57:13;15.63;;;10.00;;
72087;SDS011;59961;50.232;8.616;2022-08-19T01:59:39;16.03;;;10.20;;
72087;SDS011;59961;50.232;8.616;2022-08-19T02:02:05;18.50;;;10.68;;
72087;SDS011;59961;50.232;8.616;2022-08-19T02:04:32;17.63;;;9.93;;
72087;SDS011;59961;50.232;8.616;2022-08-19T02:06:57;15.77;;;10.20;;
72087;SDS011;59961;50.232;8.616;2022-08-19T02:09:22;17.37;;;10.93;;
72087;SDS011;59961;50.232;8.616;2022-08-19T02:11:47;17.77;;;10.43;;
72087;SDS011;59961;50.232;8.616;2022-08-19T02:14:13;16.43;;;9.93;;
72087;SDS011;59961;50.232;8.616;2022-08-19T02:16:38;16.33;;;9.70;;
72087;SDS011;59961;50.232;8.616;2022-08-19T02:19:05;17.30;;;9.45;;
72087;SDS011;59961;50.232;8.616;2022-08-19T02:21:30;16.87;;;9.50;;
72087;SDS011;59961;50.232;8.616;2022-08-19T02:23:55;22.30;;;9.60;;
72087;SDS011;59961;50.232;8.616;2022-08-19T02:26:21;16.53;;;9.80;;
72087;SDS011;59961;50.232;8.616;2022-08-19T02:28:46;17.67;;;9.80;;
72087;SDS011;59961;50.232;8.616;2022-08-19T02:31:14;15.00;;;9.43;;
72087;SDS011;59961;50.232;8.616;2022-08-19T02:33:42;16.40;;;9.48;;
72087;SDS011;59961;50.232;8.616;2022-08-19T02:36:07;15.70;;;9.13;;
72087;SDS011;59961;50.232;8.616;2022-08-19T02:38:33;15.52;;;9.45;;
72087;SDS011;59961;50.232;8.616;2022-08-19T02:41:00;28.80;;;9.40;;
72087;SDS011;59961;50.232;8.616;2022-08-19T02:43:27;14.48;;;9.40;;
72087;SDS011;59961;50.232;8.616;2022-08-19T02:45:52;13.85;;;9.52;;
72087;SDS011;59961;50.232;8.616;2022-08-19T02:48:18;16.43;;;9.23;;
72087;SDS011;59961;50.232;8.616;2022-08-19T02:50:44;15.18;;;9.20;;
72087;SDS011;59961;50.232;8.616;2022-08-19T02:53:09;16.47;;;10.47;;
72087;SDS011;59961;50.232;8.616;2022-08-19T02:55:35;15.15;;;9.57;;
72087;SDS011;59961;50.232;8.616;2022-08-19T02:58:00;19.57;;;9.37;;
72087;SDS011;59961;50.232;8.616;2022-08-19T03:00:26;16.17;;;9.40;;
72087;SDS011;59961;50.232;8.616;2022-08-19T03:02:52;15.67;;;8.70;;
72087;SDS011;59961;50.232;8.616;2022-08-19T03:05:17;16.87;;;9.23;;
72087;SDS011;59961;50.232;8.616;2022-08-19T03:07:42;14.70;;;8.53;;
72087;SDS011;59961;50.232;8.616;2022-08-19T03:10:08;15.82;;;9.38;;
72087;SDS011;59961;50.232;8.616;2022-08-19T03:12:37;16.03;;;10.07;;
72087;SDS011;59961;50.232;8.616;2022-08-19T03:15:03;16.38;;;9.20;;
72087;SDS011;59961;50.232;8.616;2022-08-19T03:17:28;15.55;;;8.82;;
72087;SDS011;59961;50.232;8.616;2022-08-19T03:19:53;15.05;;;8.43;;
72087;SDS011;59961;50.232;8.616;2022-08-19T03:22:19;15.30;;;9.07;;
72087;SDS011;59961;50.232;8.616;2022-08-19T03:24:44;16.23;;;8.70;;
72087;SDS011;59961;50.232;8.616;2022-08-19T03:27:09;13.00;;;8.10;;
72087;SDS011;59961;50.232;8.616;2022-08-19T03:29:34;15.53;;;8.90;;
72087;SDS011;59961;50.232;8.616;2022-08-19T03:32:03;14.70;;;9.23;;
72087;SDS011;59961;50.232;8.616;2022-08-19T03:34:29;14.82;;;8.50;;
72087;SDS011;59961;50.232;8.616;2022-08-19T03:36:56;13.80;;;9.07;;
72087;SDS011;59961;50.232;8.616;2022-08-19T03:39:22;14.65;;;8.60;;
72087;SDS011;59961;50.232;8.616;2022-08-19T03:41:48;16.17;;;8.90;;
72087;SDS011;59961;50.232;8.616;2022-08-19T03:44:16;13.82;;;8.20;;
72087;SDS011;59961;50.232;8.616;2022-08-19T03:46:42;13.50;;;7.90;;
72087;SDS011;59961;50.232;8.616;2022-08-19T03:49:08;13.43;;;8.17;;
72087;SDS011;59961;50.232;8.616;2022-08-19T03:51:35;13.20;;;8.97;;
72087;SDS011;59961;50.232;8.616;2022-08-19T03:54:01;13.75;;;8.75;;
72087;SDS011;59961;50.232;8.616;2022-08-19T03:56:27;17.20;;;9.60;;
72087;SDS011;59961;50.232;8.616;2022-08-19T03:58:53;15.03;;;9.63;;
72087;SDS011;59961;50.232;8.616;2022-08-19T04:01:19;15.85;;;9.70;;
72087;SDS011;59961;50.232;8.616;2022-08-19T04:03:45;15.57;;;9.38;;
72087;SDS011;59961;50.232;8.616;2022-08-19T04:06:14;14.03;;;8.40;;
72087;SDS011;59961;50.232;8.616;2022-08-19T04:08:40;16.23;;;9.35;;
72087;SDS011;59961;50.232;8.616;2022-08-19T04:11:06;14.38;;;9.25;;
72087;SDS011;59961;50.232;8.616;2022-08-19T04:13:32;15.15;;;8.90;;
72087;SDS011;59961;50.232;8.616;2022-08-19T04:15:57;14.63;;;8.70;;
72087;SDS011;59961;50.232;8.616;2022-08-19T04:18:22;15.25;;;8.75;;
72087;SDS011;59961;50.232;8.616;2022-08-19T04:20:48;14.50;;;9.13;;
72087;SDS011;59961;50.232;8.616;2022-08-19T04:23:14;14.45;;;9.32;;
72087;SDS011;59961;50.232;8.616;2022-08-19T04:25:41;13.73;;;8.70;;
72087;SDS011;59961;50.232;8.616;2022-08-19T04:28:06;15.00;;;8.85;;
72087;SDS011;59961;50.232;8.616;2022-08-19T04:30:36;14.20;;;9.03;;
72087;SDS011;59961;50.232;8.616;2022-08-19T04:33:02;14.55;;;9.35;;
72087;SDS011;59961;50.232;8.616;2022-08-19T04:35:27;19.10;;;9.77;;
72087;SDS011;59961;50.232;8.616;2022-08-19T04:37:52;16.13;;;9.32;;
72087;SDS011;59961;50.232;8.616;2022-08-19T04:40:17;15.77;;;9.47;;
72087;SDS011;59961;50.232;8.616;2022-08-19T04:43:01;14.50;;;8.90;;
72087;SDS011;59961;50.232;8.616;2022-08-19T04:45:26;14.18;;;8.70;;
72087;SDS011;59961;50.232;8.616;2022-08-19T04:47:53;14.07;;;8.70;;
72087;SDS011;59961;50.232;8.616;2022-08-19T04:50:20;14.87;;;8.73;;
72087;SDS011;59961;50.232;8.616;2022-08-19T04:52:47;16.35;;;8.82;;
72087;SDS011;59961;50.232;8.616;2022-08-19T04:55:14;12.50;;;8.10;;
72087;SDS011;59961;50.232;8.616;2022-08-19T04:57:39;14.50;;;9.03;;
72087;SDS011;59961;50.232;8.616;2022-08-19T05:00:06;13.97;;;8.63;;
72087;SDS011;59961;50.232;8.616;2022-08-19T05:02:32;17.77;;;9.32;;
72087;SDS011;59961;50.232;8.616;2022-08-19T05:04:57;13.68;;;8.15;;
72087;SDS011;59961;50.232;8.616;2022-08-19T05:07:25;16.98;;;9.02;;
72087;SDS011;59961;50.232;8.616;2022-08-19T05:09:50;13.10;;;8.67;;
72087;SDS011;59961;50.232;8.616;2022-08-19T05:12:16;14.32;;;8.82;;
72087;SDS011;59961;50.232;8.616;2022-08-19T05:14:42;14.68;;;9.15;;
72087;SDS011;59961;50.232;8.616;2022-08-19T05:17:07;12.57;;;8.50;;
72087;SDS011;59961;50.232;8.616;2022-08-19T05:19:32;12.70;;;8.03;;
72087;SDS011;59961;50.232;8.616;2022-08-19T05:22:16;13.35;;;8.30;;
72087;SDS011;59961;50.232;8.616;2022-08-19T05:24:57;15.63;;;8.32;;
72087;SDS011;59961;50.232;8.616;2022-08-19T05:27:22;13.70;;;8.50;;
72087;SDS011;59961;50.232;8.616;2022-08-19T05:29:48;14.00;;;7.90;;
72087;SDS011;59961;50.232;8.616;2022-08-19T05:32:13;13.33;;;7.70;;
72087;SDS011;59961;50.232;8.616;2022-08-19T05:34:38;16.13;;;7.87;;
72087;SDS011;59961;50.232;8.616;2022-08-19T05:37:03;12.68;;;7.80;;
72087;SDS011;59961;50.232;8.616;2022-08-19T05:39:29;14.00;;;7.80;;
72087;SDS011;59961;50.232;8.616;2022-08-19T05:41:56;10.70;;;7.03;;
72087;SDS011;59961;50.232;8.616;2022-08-19T05:44:23;10.70;;;6.57;;
72087;SDS011;59961;50.232;8.616;2022-08-19T05:46:48;11.07;;;7.45;;
72087;SDS011;59961;50.232;8.616;2022-08-19T05:49:15;11.47;;;7.00;;
72087;SDS011;59961;50.232;8.616;2022-08-19T05:51:40;15.50;;;7.32;;
72087;SDS011;59961;50.232;8.616;2022-08-19T05:54:05;12.83;;;7.93;;
72087;SDS011;59961;50.232;8.616;2022-08-19T05:56:32;13.45;;;7.45;;
72087;SDS011;59961;50.232;8.616;2022-08-19T05:58:59;12.13;;;7.60;;
72087;SDS011;59961;50.232;8.616;2022-08-19T06:01:25;11.83;;;6.80;;
72087;SDS011;59961;50.232;8.616;2022-08-19T06:03:50;13.93;;;6.67;;
72087;SDS011;59961;50.232;8.616;2022-08-19T06:06:16;12.37;;;6.80;;
72087;SDS011;59961;50.232;8.616;2022-08-19T06:08:41;11.20;;;6.50;;
72087;SDS011;59961;50.232;8.616;2022-08-19T06:11:11;11.73;;;7.10;;
72087;SDS011;59961;50.232;8.616;2022-08-19T06:13:36;11.35;;;6.70;;
72087;SDS011;59961;50.232;8.616;2022-08-19T06:16:02;11.25;;;6.75;;
72087;SDS011;59961;50.232;8.616;2022-08-19T06:18:27;10.73;;;6.17;;
72087;SDS011;59961;50.232;8.616;2022-08-19T06:20:52;12.03;;;6.67;;
72087;SDS011;59961;50.232;8.616;2022-08-19T06:23:17;11.55;;;6.70;;
72087;SDS011;59961;50.232;8.616;2022-08-19T06:25:45;9.80;;;6.18;;
72087;SDS011;59961;50.232;8.616;2022-08-19T06:28:10;11.77;;;6.05;;
72087;SDS011;59961;50.232;8.616;2022-08-19T06:30:36;9.30;;;5.95;;
72087;SDS011;59961;50.232;8.616;2022-08-19T06:33:01;10.97;;;6.60;;
72087;SDS011;59961;50.232;8.616;2022-08-19T06:35:27;9.50;;;5.90;;
72087;SDS011;59961;50.232;8.616;2022-08-19T06:37:54;10.87;;;5.47;;
72087;SDS011;59961;50.232;8.616;2022-08-19T06:40:19;10.13;;;5.57;;
72087;SDS011;59961;50.232;8.616;2022-08-19T06:42:44;12.50;;;5.60;;
72087;SDS011;59961;50.232;8.616;2022-08-19T06:45:09;10.00;;;6.13;;
72087;SDS011;59961;50.232;8.616;2022-08-19T06:47:35;9.75;;;5.70;;
72087;SDS011;59961;50.232;8.616;2022-08-19T06:50:00;11.93;;;5.93;;
72087;SDS011;59961;50.232;8.616;2022-08-19T06:52:28;11.03;;;5.97;;
72087;SDS011;59961;50.232;8.616;2022-08-19T06:54:53;10.98;;;5.30;;
72087;SDS011;59961;50.232;8.616;2022-08-19T06:57:21;9.48;;;5.47;;
72087;SDS011;59961;50.232;8.616;2022-08-19T06:59:46;11.37;;;4.73;;
72087;SDS011;59961;50.232;8.616;2022-08-19T07:02:11;9.30;;;4.77;;
72087;SDS011;59961;50.232;8.616;2022-08-19T07:04:36;9.27;;;5.40;;
72087;SDS011;59961;50.232;8.616;2022-08-19T07:07:07;9.63;;;4.68;;
72087;SDS011;59961;50.232;8.616;2022-08-19T07:09:36;9.27;;;5.30;;
72087;SDS011;59961;50.232;8.616;2022-08-19T07:12:02;9.53;;;4.73;;
72087;SDS011;59961;50.232;8.616;2022-08-19T07:14:27;8.30;;;5.40;;
72087;SDS011;59961;50.232;8.616;2022-08-19T07:16:53;9.10;;;4.85;;
72087;SDS011;59961;50.232;8.616;2022-08-19T07:19:20;10.77;;;4.60;;
72087;SDS011;59961;50.232;8.616;2022-08-19T07:21:46;8.02;;;4.70;;
72087;SDS011;59961;50.232;8.616;2022-08-19T07:24:12;7.40;;;4.67;;
72087;SDS011;59961;50.232;8.616;2022-08-19T07:26:38;10.40;;;4.83;;
72087;SDS011;59961;50.232;8.616;2022-08-19T07:29:04;8.75;;;4.10;;
72087;SDS011;59961;50.232;8.616;2022-08-19T07:31:29;8.35;;;4.55;;
72087;SDS011;59961;50.232;8.616;2022-08-19T07:33:55;9.02;;;4.82;;
72087;SDS011;59961;50.232;8.616;2022-08-19T07:36:22;9.98;;;4.60;;
72087;SDS011;59961;50.232;8.616;2022-08-19T07:38:49;9.07;;;3.83;;
72087;SDS011;59961;50.232;8.616;2022-08-19T07:41:20;6.70;;;4.00;;
72087;SDS011;59961;50.232;8.616;2022-08-19T07:43:48;9.18;;;5.05;;
72087;SDS011;59961;50.232;8.616;2022-08-19T07:46:14;11.73;;;4.30;;
72087;SDS011;59961;50.232;8.616;2022-08-19T07:48:41;9.00;;;4.53;;
72087;SDS011;59961;50.232;8.616;2022-08-19T07:51:06;8.57;;;4.95;;
72087;SDS011;59961;50.232;8.616;2022-08-19T07:53:33;8.30;;;4.55;;
72087;SDS011;59961;50.232;8.616;2022-08-19T07:55:58;7.97;;;5.10;;
72087;SDS011;59961;50.232;8.616;2022-08-19T07:58:28;7.72;;;4.97;;
72087;SDS011;59961;50.232;8.616;2022-08-19T08:00:53;8.23;;;4.63;;
72087;SDS011;59961;50.232;8.616;2022-08-19T08:03:20;8.20;;;4.50;;
72087;SDS011;59961;50.232;8.616;2022-08-19T08:05:45;8.48;;;4.80;;
72087;SDS011;59961;50.232;8.616;2022-08-19T08:08:29;8.15;;;4.93;;
72087;SDS011;59961;50.232;8.616;2022-08-19T08:11:13;11.93;;;4.95;;
72087;SDS011;59961;50.232;8.616;2022-08-19T08:13:39;10.27;;;5.20;;
72087;SDS011;59961;50.232;8.616;2022-08-19T08:16:06;8.07;;;4.53;;
72087;SDS011;59961;50.232;8.616;2022-08-19T08:18:31;8.40;;;4.55;;
72087;SDS011;59961;50.232;8.616;2022-08-19T08:20:58;9.20;;;4.68;;
72087;SDS011;59961;50.232;8.616;2022-08-19T08:23:23;7.60;;;4.67;;
72087;SDS011;59961;50.232;8.616;2022-08-19T08:25:50;10.20;;;5.22;;
72087;SDS011;59961;50.232;8.616;2022-08-19T08:28:16;8.97;;;5.00;;
72087;SDS011;59961;50.232;8.616;2022-08-19T08:30:41;7.70;;;4.60;;
72087;SDS011;59961;50.232;8.616;2022-08-19T08:33:09;10.73;;;5.10;;
72087;SDS011;59961;50.232;8.616;2022-08-19T08:35:34;8.32;;;5.10;;
72087;SDS011;59961;50.232;8.616;2022-08-19T08:37:59;7.13;;;4.43;;
72087;SDS011;59961;50.232;8.616;2022-08-19T08:40:29;10.03;;;5.40;;
72087;SDS011;59961;50.232;8.616;2022-08-19T08:45:30;7.45;;;4.82;;
72087;SDS011;59961;50.232;8.616;2022-08-19T08:47:56;9.80;;;4.80;;
72087;SDS011;59961;50.232;8.616;2022-08-19T08:50:25;8.73;;;5.03;;
72087;SDS011;59961;50.232;8.616;2022-08-19T08:52:54;7.95;;;4.20;;
72087;SDS011;59961;50.232;8.616;2022-08-19T08:55:22;7.82;;;4.82;;
72087;SDS011;59961;50.232;8.616;2022-08-19T09:00:23;9.03;;;5.43;;
72087;SDS011;59961;50.232;8.616;2022-08-19T09:02:49;8.35;;;5.50;;
72087;SDS011;59961;50.232;8.616;2022-08-19T09:05:15;8.95;;;5.38;;
72087;SDS011;59961;50.232;8.616;2022-08-19T09:10:35;8.90;;;5.22;;
72087;SDS011;59961;50.232;8.616;2022-08-19T09:15:32;8.70;;;4.93;;
72087;SDS011;59961;50.232;8.616;2022-08-19T09:18:00;9.40;;;5.00;;
72087;SDS011;59961;50.232;8.616;2022-08-19T09:20:27;7.15;;;4.35;;
72087;SDS011;59961;50.232;8.616;2022-08-19T09:22:52;8.07;;;4.83;;
72087;SDS011;59961;50.232;8.616;2022-08-19T09:25:18;9.65;;;5.93;;
72087;SDS011;59961;50.232;8.616;2022-08-19T09:27:46;8.15;;;5.70;;
72087;SDS011;59961;50.232;8.616;2022-08-19T09:30:21;8.30;;;4.77;;
72087;SDS011;59961;50.232;8.616;2022-08-19T09:32:48;9.20;;;6.00;;
72087;SDS011;59961;50.232;8.616;2022-08-19T09:35:13;9.70;;;6.00;;
72087;SDS011;59961;50.232;8.616;2022-08-19T09:37:39;9.23;;;6.53;;
72087;SDS011;59961;50.232;8.616;2022-08-19T09:40:04;9.57;;;6.07;;
72087;SDS011;59961;50.232;8.616;2022-08-19T09:42:29;10.27;;;6.50;;
72087;SDS011;59961;50.232;8.616;2022-08-19T09:44:55;9.10;;;6.90;;
72087;SDS011;59961;50.232;8.616;2022-08-19T09:47:20;11.27;;;6.43;;
72087;SDS011;59961;50.232;8.616;2022-08-19T09:49:45;8.77;;;6.00;;
72087;SDS011;59961;50.232;8.616;2022-08-19T09:52:10;9.60;;;5.40;;
72087;SDS011;59961;50.232;8.616;2022-08-19T09:54:36;10.35;;;5.65;;
72087;SDS011;59961;50.232;8.616;2022-08-19T09:57:02;12.18;;;6.65;;
72087;SDS011;59961;50.232;8.616;2022-08-19T09:59:28;10.40;;;6.73;;
72087;SDS011;59961;50.232;8.616;2022-08-19T10:01:53;11.47;;;7.10;;
72087;SDS011;59961;50.232;8.616;2022-08-19T10:04:18;13.03;;;7.03;;
72087;SDS011;59961;50.232;8.616;2022-08-19T10:06:46;10.55;;;6.85;;
72087;SDS011;59961;50.232;8.616;2022-08-19T10:09:13;10.13;;;6.28;;
72087;SDS011;59961;50.232;8.616;2022-08-19T10:11:42;9.57;;;6.57;;
72087;SDS011;59961;50.232;8.616;2022-08-19T10:14:07;11.45;;;6.38;;
72087;SDS011;59961;50.232;8.616;2022-08-19T10:16:33;8.53;;;5.37;;
72087;SDS011;59961;50.232;8.616;2022-08-19T10:18:58;10.73;;;6.77;;
72087;SDS011;59961;50.232;8.616;2022-08-19T10:21:25;8.87;;;6.10;;
72087;SDS011;59961;50.232;8.616;2022-08-19T10:23:51;11.38;;;6.63;;
72087;SDS011;59961;50.232;8.616;2022-08-19T10:26:19;12.35;;;7.22;;
72087;SDS011;59961;50.232;8.616;2022-08-19T10:28:44;11.88;;;7.05;;
72087;SDS011;59961;50.232;8.616;2022-08-19T10:31:11;11.77;;;8.37;;
72087;SDS011;59961;50.232;8.616;2022-08-19T10:33:38;10.93;;;7.50;;
72087;SDS011;59961;50.232;8.616;2022-08-19T10:36:05;12.93;;;8.63;;
72087;SDS011;59961;50.232;8.616;2022-08-19T10:38:30;12.27;;;8.20;;
72087;SDS011;59961;50.232;8.616;2022-08-19T10:40:56;16.77;;;8.30;;
72087;SDS011;59961;50.232;8.616;2022-08-19T10:43:21;12.93;;;8.87;;
72087;SDS011;59961;50.232;8.616;2022-08-19T10:45:55;9.57;;;6.93;;
72087;SDS011;59961;50.232;8.616;2022-08-19T10:48:22;11.35;;;8.10;;
72087;SDS011;59961;50.232;8.616;2022-08-19T10:50:47;11.37;;;8.30;;
72087;SDS011;59961;50.232;8.616;2022-08-19T10:53:31;12.20;;;8.10;;
72087;SDS011;59961;50.232;8.616;2022-08-19T10:55:56;11.97;;;7.93;;
72087;SDS011;59961;50.232;8.616;2022-08-19T10:58:40;9.15;;;6.43;;
72087;SDS011;59961;50.232;8.616;2022-08-19T11:01:06;11.18;;;8.23;;
72087;SDS011;59961;50.232;8.616;2022-08-19T11:03:32;12.40;;;8.83;;
72087;SDS011;59961;50.232;8.616;2022-08-19T11:05:58;13.80;;;9.90;;
72087;SDS011;59961;50.232;8.616;2022-08-19T11:08:23;13.70;;;9.55;;
72087;SDS011;59961;50.232;8.616;2022-08-19T11:10:50;12.17;;;7.53;;
72087;SDS011;59961;50.232;8.616;2022-08-19T11:13:15;14.07;;;8.30;;
72087;SDS011;59961;50.232;8.616;2022-08-19T11:15:40;14.32;;;8.32;;
72087;SDS011;59961;50.232;8.616;2022-08-19T11:18:05;12.85;;;8.15;;
72087;SDS011;59961;50.232;8.616;2022-08-19T11:20:33;11.13;;;7.87;;
72087;SDS011;59961;50.232;8.616;2022-08-19T11:22:58;11.27;;;8.30;;
72087;SDS011;59961;50.232;8.616;2022-08-19T11:25:23;11.30;;;8.10;;
72087;SDS011;59961;50.232;8.616;2022-08-19T11:27:48;11.02;;;7.90;;
72087;SDS011;59961;50.232;8.616;2022-08-19T11:30:15;10.75;;;7.47;;
72087;SDS011;59961;50.232;8.616;2022-08-19T11:32:41;9.40;;;6.80;;
72087;SDS011;59961;50.232;8.616;2022-08-19T11:35:06;12.10;;;7.23;;
72087;SDS011;59961;50.232;8.616;2022-08-19T11:37:32;11.87;;;7.63;;
72087;SDS011;59961;50.232;8.616;2022-08-19T11:40:03;9.75;;;7.15;;
72087;SDS011;59961;50.232;8.616;2022-08-19T11:42:28;10.43;;;7.25;;
72087;SDS011;59961;50.232;8.616;2022-08-19T11:45:12;10.55;;;7.35;;
72087;SDS011;59961;50.232;8.616;2022-08-19T11:47:39;9.57;;;7.25;;
72087;SDS011;59961;50.232;8.616;2022-08-19T11:50:04;10.73;;;6.60;;
72087;SDS011;59961;50.232;8.616;2022-08-19T11:52:30;10.17;;;6.50;;
72087;SDS011;59961;50.232;8.616;2022-08-19T11:54:55;11.97;;;7.57;;
72087;SDS011;59961;50.232;8.616;2022-08-19T11:57:21;10.60;;;7.10;;
72087;SDS011;59961;50.232;8.616;2022-08-19T11:59:50;10.45;;;7.18;;
72087;SDS011;59961;50.232;8.616;2022-08-19T12:02:15;10.23;;;7.43;;
72087;SDS011;59961;50.232;8.616;2022-08-19T12:04:40;11.17;;;8.23;;
72087;SDS011;59961;50.232;8.616;2022-08-19T12:07:06;10.87;;;7.77;;
72087;SDS011;59961;50.232;8.616;2022-08-19T12:09:31;10.33;;;6.80;;
72087;SDS011;59961;50.232;8.616;2022-08-19T12:11:56;10.45;;;7.60;;
72087;SDS011;59961;50.232;8.616;2022-08-19T12:14:21;10.67;;;7.07;;
72087;SDS011;59961;50.232;8.616;2022-08-19T12:16:47;9.00;;;6.73;;
72087;SDS011;59961;50.232;8.616;2022-08-19T12:19:13;11.30;;;7.53;;
72087;SDS011;59961;50.232;8.616;2022-08-19T12:21:38;9.53;;;6.80;;
72087;SDS011;59961;50.232;8.616;2022-08-19T12:24:04;10.70;;;7.07;;
72087;SDS011;59961;50.232;8.616;2022-08-19T12:26:30;9.60;;;6.55;;
72087;SDS011;59961;50.232;8.616;2022-08-19T12:28:56;9.70;;;6.70;;
72087;SDS011;59961;50.232;8.616;2022-08-19T12:31:23;8.55;;;6.45;;
72087;SDS011;59961;50.232;8.616;2022-08-19T12:33:48;11.02;;;6.03;;
72087;SDS011;59961;50.232;8.616;2022-08-19T12:36:14;9.00;;;5.83;;
72087;SDS011;59961;50.232;8.616;2022-08-19T12:38:40;8.05;;;5.95;;
72087;SDS011;59961;50.232;8.616;2022-08-19T12:41:06;9.63;;;6.00;;
72087;SDS011;59961;50.232;8.616;2022-08-19T12:43:32;7.88;;;5.80;;
72087;SDS011;59961;50.232;8.616;2022-08-19T12:45:57;9.27;;;5.17;;
72087;SDS011;59961;50.232;8.616;2022-08-19T12:48:22;9.77;;;5.20;;
72087;SDS011;59961;50.232;8.616;2022-08-19T12:50:48;7.37;;;5.27;;
72087;SDS011;59961;50.232;8.616;2022-08-19T12:53:13;7.77;;;5.60;;
72087;SDS011;59961;50.232;8.616;2022-08-19T12:55:38;8.73;;;5.30;;
72087;SDS011;59961;50.232;8.616;2022-08-19T12:58:03;7.90;;;5.80;;
72087;SDS011;59961;50.232;8.616;2022-08-19T13:00:28;7.50;;;5.10;;
72087;SDS011;59961;50.232;8.616;2022-08-19T13:02:54;9.83;;;5.13;;
72087;SDS011;59961;50.232;8.616;2022-08-19T13:05:20;7.53;;;5.20;;
72087;SDS011;59961;50.232;8.616;2022-08-19T13:07:47;8.35;;;5.20;;
72087;SDS011;59961;50.232;8.616;2022-08-19T13:10:13;8.82;;;5.15;;
72087;SDS011;59961;50.232;8.616;2022-08-19T13:12:40;8.50;;;4.90;;
72087;SDS011;59961;50.232;8.616;2022-08-19T13:15:06;7.47;;;5.20;;
72087;SDS011;59961;50.232;8.616;2022-08-19T13:17:33;8.15;;;4.55;;
72087;SDS011;59961;50.232;8.616;2022-08-19T13:19:58;6.40;;;4.83;;
72087;SDS011;59961;50.232;8.616;2022-08-19T13:22:23;7.73;;;4.90;;
72087;SDS011;59961;50.232;8.616;2022-08-19T13:24:49;7.47;;;5.03;;
72087;SDS011;59961;50.232;8.616;2022-08-19T13:27:15;6.07;;;4.00;;
72087;SDS011;59961;50.232;8.616;2022-08-19T13:29:40;7.10;;;4.97;;
72087;SDS011;59961;50.232;8.616;2022-08-19T13:32:24;7.13;;;4.60;;
72087;SDS011;59961;50.232;8.616;2022-08-19T13:35:08;6.20;;;4.30;;
72087;SDS011;59961;50.232;8.616;2022-08-19T13:37:33;6.63;;;4.40;;
72087;SDS011;59961;50.232;8.616;2022-08-19T13:40:17;6.23;;;4.10;;
72087;SDS011;59961;50.232;8.616;2022-08-19T13:42:48;5.63;;;3.83;;
72087;SDS011;59961;50.232;8.616;2022-08-19T13:45:14;6.13;;;4.15;;
72087;SDS011;59961;50.232;8.616;2022-08-19T13:47:41;7.35;;;4.07;;
72087;SDS011;59961;50.232;8.616;2022-08-19T13:50:10;5.55;;;4.05;;
72087;SDS011;59961;50.232;8.616;2022-08-19T13:52:36;6.33;;;3.87;;
72087;SDS011;59961;50.232;8.616;2022-08-19T13:55:01;5.88;;;4.10;;
72087;SDS011;59961;50.232;8.616;2022-08-19T13:57:26;7.10;;;3.80;;
72087;SDS011;59961;50.232;8.616;2022-08-19T13:59:51;6.53;;;4.07;;
72087;SDS011;59961;50.232;8.616;2022-08-19T14:02:16;6.65;;;4.22;;
72087;SDS011;59961;50.232;8.616;2022-08-19T14:04:41;6.20;;;4.05;;
72087;SDS011;59961;50.232;8.616;2022-08-19T14:07:07;6.73;;;4.10;;
72087;SDS011;59961;50.232;8.616;2022-08-19T14:09:32;6.10;;;3.87;;
72087;SDS011;59961;50.232;8.616;2022-08-19T14:11:57;4.93;;;3.57;;
72087;SDS011;59961;50.232;8.616;2022-08-19T14:14:22;5.87;;;3.80;;
72087;SDS011;59961;50.232;8.616;2022-08-19T14:16:48;6.43;;;3.93;;
72087;SDS011;59961;50.232;8.616;2022-08-19T14:19:13;6.57;;;3.83;;
72087;SDS011;59961;50.232;8.616;2022-08-19T14:21:38;6.60;;;3.93;;
72087;SDS011;59961;50.232;8.616;2022-08-19T14:24:04;5.53;;;3.90;;
72087;SDS011;59961;50.232;8.616;2022-08-19T14:26:29;7.50;;;3.70;;
72087;SDS011;59961;50.232;8.616;2022-08-19T14:28:54;4.80;;;3.50;;
72087;SDS011;59961;50.232;8.616;2022-08-19T14:31:22;6.00;;;3.40;;
72087;SDS011;59961;50.232;8.616;2022-08-19T14:33:49;5.22;;;3.53;;
72087;SDS011;59961;50.232;8.616;2022-08-19T14:36:15;5.28;;;3.65;;
72087;SDS011;59961;50.232;8.616;2022-08-19T14:38:40;4.67;;;3.30;;
72087;SDS011;59961;50.232;8.616;2022-08-19T14:41:18;5.80;;;3.87;;
72087;SDS011;59961;50.232;8.616;2022-08-19T14:43:44;6.90;;;3.63;;
72087;SDS011;59961;50.232;8.616;2022-08-19T14:46:11;5.40;;;4.00;;